Time;durP1;ratioP1;P1;durP2;ratioP2;P2;SDS_P1;SDS_P2;PMS_P1;PMS_P2;Temp;Humidity;BMP_temperature;BMP_pressure;BME280_temperature;BME280_humidity;BME280_pressure;Samples;Min_cycle;Max_cycle;Signal;HPM_P1;HPM_P2
2022/09/25 00:00:56;;;;;;;25.52;23.33;;;14.30;90.20;;;;;;5065681;28;20431;-67
2022/09/25 00:03:26;;;;;;;25.60;23.40;;;14.30;90.30;;;;;;5066392;28;20434;-67
2022/09/25 00:06:00;;;;;;;25.15;23.05;;;14.20;90.30;;;;;;5065367;28;20714;-67
2022/09/25 00:08:26;;;;;;;24.58;22.58;;;14.20;90.20;;;;;;5055723;28;20454;-67
2022/09/25 00:10:53;;;;;;;24.52;22.52;;;14.20;90.20;;;;;;5067054;28;20438;-67
2022/09/25 00:13:21;;;;;;;25.35;23.08;;;14.20;90.30;;;;;;5066049;28;20949;-67
2022/09/25 00:15:49;;;;;;;24.50;22.52;;;14.20;90.40;;;;;;5065087;28;20443;-67
2022/09/25 00:19:48;;;;;;;25.90;23.75;;;14.20;90.40;;;;;;5066747;28;21109;-67
2022/09/25 00:21:04;;;;;;;26.70;24.35;;;14.20;90.60;;;;;;5063702;28;20427;-67
2022/09/25 00:23:32;;;;;;;27.35;24.95;;;14.20;91.00;;;;;;5054513;28;20834;-67
2022/09/25 00:25:59;;;;;;;27.88;25.58;;;14.20;91.50;;;;;;5061595;28;20793;-67
2022/09/25 00:28:28;;;;;;;27.83;25.42;;;14.20;91.70;;;;;;5067231;28;20453;-67
2022/09/25 00:30:55;;;;;;;28.20;25.70;;;14.10;92.30;;;;;;5063832;28;20439;-67
2022/09/25 00:33:22;;;;;;;29.33;26.73;;;14.10;92.60;;;;;;5065537;28;20431;-67
2022/09/25 00:35:49;;;;;;;32.23;29.40;;;14.10;92.90;;;;;;5064402;28;20593;-68
2022/09/25 00:38:17;;;;;;;31.17;28.47;;;14.00;93.30;;;;;;5058829;28;20438;-67
2022/09/25 00:40:44;;;;;;;30.40;27.70;;;14.00;93.70;;;;;;5067206;28;20538;-68
2022/09/25 00:43:13;;;;;;;31.92;29.02;;;14.00;93.80;;;;;;5063035;28;20432;-67
2022/09/25 00:45:41;;;;;;;31.95;29.15;;;13.90;94.00;;;;;;5064192;28;20427;-68
2022/09/25 00:48:13;;;;;;;30.30;27.60;;;13.90;94.40;;;;;;5064229;28;20432;-68
2022/09/25 00:50:49;;;;;;;32.92;29.88;;;13.90;94.30;;;;;;5064323;28;20926;-68
2022/09/25 00:53:21;;;;;;;33.17;30.17;;;13.90;94.50;;;;;;5050777;28;20443;-68
2022/09/25 00:55:49;;;;;;;32.45;29.55;;;13.80;94.80;;;;;;5057622;28;20433;-67
2022/09/25 00:58:22;;;;;;;33.80;30.60;;;13.80;94.80;;;;;;5058304;28;20439;-67
2022/09/25 01:00:50;;;;;;;34.63;31.63;;;13.80;95.20;;;;;;5063562;28;20443;-67
2022/09/25 01:03:18;;;;;;;36.80;33.40;;;13.70;95.30;;;;;;5057515;28;20434;-67
2022/09/25 01:05:46;;;;;;;33.67;30.58;;;13.70;95.80;;;;;;5054436;28;20763;-67
2022/09/25 01:08:24;;;;;;;36.72;33.13;;;13.70;95.90;;;;;;5063152;28;21148;-67
2022/09/25 01:10:51;;;;;;;39.42;35.63;;;13.70;96.30;;;;;;5058988;28;20450;-67
2022/09/25 01:13:19;;;;;;;37.70;34.20;;;13.60;96.40;;;;;;5056662;28;20423;-68
2022/09/25 01:15:53;;;;;;;38.43;34.73;;;13.60;96.50;;;;;;5058618;28;20432;-68
2022/09/25 01:18:45;;;;;;;36.65;33.05;;;13.60;96.60;;;;;;5056692;28;20430;-67
2022/09/25 01:21:27;;;;;;;38.63;34.92;;;13.60;96.80;;;;;;5059824;28;20437;-67
2022/09/25 01:24:18;;;;;;;37.92;34.25;;;13.60;97.00;;;;;;5058214;28;20676;-67
2022/09/25 01:27:24;;;;;;;36.45;33.08;;;13.50;97.10;;;;;;5062430;28;20450;-67
2022/09/25 01:29:57;;;;;;;35.63;32.13;;;13.50;97.50;;;;;;5061689;28;20427;-68
2022/09/25 01:32:29;;;;;;;34.38;31.27;;;13.50;97.00;;;;;;5058761;28;20431;-68
2022/09/25 01:35:02;;;;;;;33.60;30.50;;;13.50;96.90;;;;;;5062939;28;20427;-68
2022/09/25 01:37:36;;;;;;;35.30;32.08;;;13.50;96.70;;;;;;5055946;28;20428;-68
2022/09/25 01:40:13;;;;;;;36.90;33.50;;;13.50;96.70;;;;;;5064927;28;20454;-67
2022/09/25 01:42:44;;;;;;;36.83;33.35;;;13.50;96.70;;;;;;5062026;28;20435;-67
2022/09/25 01:45:18;;;;;;;38.30;34.70;;;13.50;96.80;;;;;;5059835;28;20456;-67
2022/09/25 01:47:49;;;;;;;39.40;35.70;;;13.50;97.00;;;;;;5063031;28;20427;-67
2022/09/25 01:50:20;;;;;;;38.28;34.78;;;13.50;97.30;;;;;;5063138;28;20905;-68
2022/09/25 01:52:50;;;;;;;34.73;31.43;;;13.50;97.40;;;;;;5057620;28;20533;-68
2022/09/25 01:55:21;;;;;;;37.97;34.47;;;13.40;97.30;;;;;;5061051;28;20476;-67
2022/09/25 02:00:32;;;;;;;36.22;32.92;;;13.40;97.60;;;;;;5060315;28;20431;-70
2022/09/25 02:03:06;;;;;;;36.53;32.92;;;13.50;97.50;;;;;;5060654;28;20436;-70
2022/09/25 02:05:39;;;;;;;35.00;31.70;;;13.50;97.70;;;;;;5055831;28;20442;-70
2022/09/25 02:08:13;;;;;;;35.50;31.88;;;13.50;97.60;;;;;;5066688;28;20522;-71
2022/09/25 02:10:46;;;;;;;36.83;33.22;;;13.50;97.50;;;;;;5063383;28;20543;-70
2022/09/25 02:13:16;;;;;;;35.25;31.95;;;13.50;97.60;;;;;;5059684;28;20442;-70
2022/09/25 02:15:50;;;;;;;35.72;32.53;;;13.50;97.60;;;;;;5061182;28;20435;-71
2022/09/25 02:21:12;;;;;;;34.47;31.33;;;13.50;97.60;;;;;;5060578;28;20724;-71
2022/09/25 02:23:49;;;;;;;33.33;30.33;;;13.40;97.50;;;;;;5062268;28;20853;-71
2022/09/25 02:26:24;;;;;;;35.58;32.20;;;13.50;97.50;;;;;;5064783;28;20456;-71
2022/09/25 02:28:52;;;;;;;33.97;30.88;;;13.50;97.60;;;;;;5078976;28;20498;-71
2022/09/25 02:31:23;;;;;;;34.88;31.67;;;13.50;97.60;;;;;;5067907;28;20526;-71
2022/09/25 02:33:50;;;;;;;35.63;32.30;;;13.50;97.70;;;;;;5068941;28;20840;-71
2022/09/25 02:36:19;;;;;;;32.55;29.45;;;13.50;97.60;;;;;;5071279;28;20959;-71
2022/09/25 02:38:48;;;;;;;32.03;28.92;;;13.50;97.60;;;;;;5072184;28;20438;-70
2022/09/25 02:41:21;;;;;;;31.67;28.47;;;13.50;97.60;;;;;;5058552;28;20431;-70
2022/09/25 02:43:57;;;;;;;30.95;28.05;;;13.50;97.50;;;;;;5063053;28;20489;-71
2022/09/25 02:46:36;;;;;;;26.63;24.17;;;13.50;97.40;;;;;;5061783;28;20435;-71
2022/09/25 02:49:12;;;;;;;28.33;25.40;;;13.50;97.40;;;;;;5064077;28;20881;-72
2022/09/25 02:51:49;;;;;;;29.37;26.57;;;13.50;96.90;;;;;;5065728;28;20503;-71
2022/09/25 02:54:21;;;;;;;28.50;25.70;;;13.50;97.00;;;;;;5063676;28;20427;-72
2022/09/25 02:56:53;;;;;;;27.48;24.80;;;13.50;97.00;;;;;;5064797;28;20431;-71
2022/09/25 02:59:25;;;;;;;27.35;24.73;;;13.40;97.00;;;;;;5067172;28;20431;-71
2022/09/25 03:01:56;;;;;;;26.50;24.03;;;13.40;96.90;;;;;;5067042;28;20435;-71
2022/09/25 03:04:25;;;;;;;26.35;23.67;;;13.40;96.70;;;;;;5065616;28;20434;-71
2022/09/25 03:06:52;;;;;;;24.65;22.15;;;13.40;96.70;;;;;;5074116;28;20425;-71
2022/09/25 03:09:21;;;;;;;23.60;21.30;;;13.40;96.70;;;;;;5069070;28;20667;-71
2022/09/25 03:11:48;;;;;;;24.00;21.60;;;13.40;96.60;;;;;;5065996;28;20565;-70
2022/09/25 03:14:15;;;;;;;23.35;20.85;;;13.40;96.60;;;;;;5066366;28;20565;-71
2022/09/25 03:16:46;;;;;;;22.50;20.40;;;13.40;96.60;;;;;;5064776;28;20956;-71
2022/09/25 03:19:16;;;;;;;22.50;20.20;;;13.40;96.60;;;;;;5061751;28;20973;-71
2022/09/25 03:21:43;;;;;;;19.67;17.85;;;13.40;96.40;;;;;;5078625;28;20426;-71
2022/09/25 03:24:10;;;;;;;19.67;17.88;;;13.40;96.10;;;;;;5065265;28;20960;-71
2022/09/25 03:26:39;;;;;;;19.08;17.15;;;13.30;96.10;;;;;;5069014;28;20891;-71
2022/09/25 03:29:06;;;;;;;18.55;16.85;;;13.40;96.00;;;;;;5068966;28;20428;-71
2022/09/25 03:31:34;;;;;;;19.95;17.85;;;13.40;95.90;;;;;;5068261;28;20841;-71
2022/09/25 03:34:01;;;;;;;19.83;17.17;;;13.30;95.70;;;;;;5070571;28;20563;-71
2022/09/25 03:36:32;;;;;;;17.55;15.85;;;13.40;95.70;;;;;;5071262;28;20799;-71
2022/09/25 03:38:59;;;;;;;17.40;15.80;;;13.40;95.60;;;;;;5064097;28;20495;-71
2022/09/25 03:41:28;;;;;;;15.90;14.30;;;13.30;95.30;;;;;;5064821;28;20716;-71
2022/09/25 03:43:56;;;;;;;15.73;14.23;;;13.30;95.30;;;;;;5074313;28;20848;-71
2022/09/25 03:46:24;;;;;;;15.20;13.70;;;13.30;95.90;;;;;;5065421;28;20432;-71
2022/09/25 03:48:52;;;;;;;15.27;13.77;;;13.30;95.50;;;;;;5071915;28;20439;-71
2022/09/25 03:51:19;;;;;;;14.25;12.75;;;13.30;95.70;;;;;;5064705;28;20910;-71
2022/09/25 03:53:48;;;;;;;13.82;12.50;;;13.30;95.50;;;;;;5072179;28;20947;-71
2022/09/25 03:56:18;;;;;;;14.20;12.80;;;13.30;95.50;;;;;;5063989;28;20446;-71
2022/09/25 03:58:45;;;;;;;12.30;11.00;;;13.30;95.40;;;;;;5073961;28;20454;-70
2022/09/25 04:01:12;;;;;;;12.00;10.90;;;13.30;95.20;;;;;;5061930;28;20431;-71
2022/09/25 04:03:40;;;;;;;14.73;11.47;;;13.30;95.00;;;;;;5064234;28;20450;-71
2022/09/25 04:06:08;;;;;;;15.32;11.80;;;13.30;94.90;;;;;;5070039;28;20455;-71
2022/09/25 04:08:36;;;;;;;12.63;11.27;;;13.30;95.20;;;;;;5080617;28;20410;-71
2022/09/25 04:11:04;;;;;;;11.20;10.10;;;13.30;95.00;;;;;;5077012;28;20901;-70
2022/09/25 04:13:33;;;;;;;10.85;9.60;;;13.30;94.80;;;;;;5066548;28;20535;-70
2022/09/25 04:16:02;;;;;;;10.05;9.10;;;13.30;94.80;;;;;;5078536;28;20418;-71
2022/09/25 04:18:30;;;;;;;9.50;7.90;;;13.30;94.70;;;;;;5079786;28;20453;-71
2022/09/25 04:20:57;;;;;;;9.23;7.30;;;13.30;94.60;;;;;;5064304;28;20421;-71
2022/09/25 04:23:24;;;;;;;7.85;6.95;;;13.30;94.90;;;;;;5066155;28;20431;-72
2022/09/25 04:25:51;;;;;;;7.32;6.20;;;13.30;95.10;;;;;;5065133;28;20438;-71
2022/09/25 04:28:20;;;;;;;6.40;5.77;;;13.30;95.00;;;;;;5067184;28;20443;-72
2022/09/25 04:30:47;;;;;;;6.10;5.50;;;13.30;95.00;;;;;;5065558;28;20697;-71
2022/09/25 04:35:59;;;;;;;5.15;4.10;;;13.30;94.70;;;;;;5064481;28;20414;-71
2022/09/25 04:38:26;;;;;;;5.65;4.60;;;13.40;94.50;;;;;;5066346;28;20423;-71
2022/09/25 04:40:53;;;;;;;5.63;4.10;;;13.30;94.30;;;;;;5065712;28;20423;-71
2022/09/25 04:43:21;;;;;;;7.57;4.40;;;13.30;94.10;;;;;;5069951;28;20672;-71
2022/09/25 04:45:49;;;;;;;7.55;5.00;;;13.30;94.10;;;;;;5066839;28;20913;-71
2022/09/25 04:48:16;;;;;;;9.27;4.80;;;13.30;94.30;;;;;;5065365;28;20420;-71
2022/09/25 04:50:47;;;;;;;5.68;4.30;;;13.20;94.20;;;;;;5067036;28;20422;-71
2022/09/25 04:53:15;;;;;;;6.47;4.50;;;13.20;94.10;;;;;;5061491;28;20438;-70
2022/09/25 04:55:42;;;;;;;7.50;4.00;;;13.30;94.20;;;;;;5061635;28;20476;-70
2022/09/25 04:58:10;;;;;;;6.45;4.40;;;13.20;94.10;;;;;;5062685;28;20439;-70
2022/09/25 05:00:39;;;;;;;7.50;4.82;;;13.20;94.00;;;;;;5062990;28;20416;-70
2022/09/25 05:03:06;;;;;;;6.78;4.30;;;13.20;93.70;;;;;;5085432;28;20424;-71
2022/09/25 05:05:34;;;;;;;6.77;4.70;;;13.20;93.60;;;;;;5065962;28;20439;-70
2022/09/25 05:08:01;;;;;;;6.13;4.45;;;13.20;94.00;;;;;;5058397;28;20458;-70
2022/09/25 05:10:30;;;;;;;7.32;4.50;;;13.20;94.00;;;;;;5061667;28;20427;-70
2022/09/25 05:12:58;;;;;;;7.47;4.10;;;13.10;94.20;;;;;;5054384;28;22419;-71
2022/09/25 05:15:26;;;;;;;7.50;3.92;;;13.10;94.10;;;;;;5058128;28;20469;-70
2022/09/25 05:18:01;;;;;;;7.82;3.95;;;13.10;94.20;;;;;;5067563;28;20457;-70
2022/09/25 05:20:28;;;;;;;6.00;3.90;;;13.10;94.00;;;;;;5063926;28;20802;-70
2022/09/25 05:22:55;;;;;;;8.70;4.25;;;13.10;94.30;;;;;;5070640;28;20846;-71
2022/09/25 05:25:24;;;;;;;5.28;4.30;;;13.10;94.20;;;;;;5063267;28;20512;-71
2022/09/25 05:27:51;;;;;;;6.78;3.90;;;13.10;94.20;;;;;;5064485;28;20416;-71
2022/09/25 05:30:19;;;;;;;6.82;3.55;;;13.10;93.90;;;;;;5066067;28;20420;-71
2022/09/25 05:32:49;;;;;;;6.95;4.10;;;13.10;93.70;;;;;;5061544;28;20423;-71
2022/09/25 05:35:18;;;;;;;6.68;3.80;;;13.10;93.80;;;;;;5057243;28;20454;-70
2022/09/25 05:37:44;;;;;;;8.07;3.70;;;13.10;93.80;;;;;;5059315;28;20434;-71
2022/09/25 05:40:14;;;;;;;5.85;3.40;;;13.10;93.80;;;;;;5055074;28;20443;-71
2022/09/25 05:42:42;;;;;;;7.03;4.00;;;13.10;93.70;;;;;;5060087;28;20990;-69
2022/09/25 05:45:10;;;;;;;6.10;3.10;;;13.10;93.70;;;;;;5065832;28;20415;-70
2022/09/25 05:47:37;;;;;;;8.55;3.10;;;13.10;93.40;;;;;;5063266;28;20469;-70
2022/09/25 05:50:05;;;;;;;5.20;2.90;;;13.10;93.20;;;;;;5068807;28;20442;-70
2022/09/25 05:52:33;;;;;;;5.35;2.95;;;13.00;92.90;;;;;;5060827;28;20423;-70
2022/09/25 05:55:02;;;;;;;5.65;2.83;;;13.00;93.10;;;;;;5064134;28;20959;-70
2022/09/25 05:57:31;;;;;;;7.07;3.00;;;13.00;93.10;;;;;;5063719;28;20917;-70
2022/09/25 05:59:58;;;;;;;7.72;3.17;;;13.00;93.10;;;;;;5065371;28;20438;-70
2022/09/25 06:02:24;;;;;;;5.45;2.78;;;13.00;93.10;;;;;;5063619;28;20419;-70
2022/09/25 06:04:51;;;;;;;6.90;2.80;;;12.90;92.90;;;;;;5064298;28;20442;-70
2022/09/25 06:07:18;;;;;;;6.93;2.90;;;12.90;93.00;;;;;;5064997;28;20498;-71
2022/09/25 06:09:46;;;;;;;6.35;2.60;;;12.90;92.80;;;;;;5059081;28;20917;-70
2022/09/25 06:12:13;;;;;;;6.15;2.40;;;12.90;92.90;;;;;;5059412;28;20419;-71
2022/09/25 06:14:40;;;;;;;7.30;3.00;;;12.80;93.10;;;;;;5060488;28;20420;-70
2022/09/25 06:17:07;;;;;;;6.83;2.40;;;12.80;93.10;;;;;;5048047;28;20477;-71
2022/09/25 06:19:34;;;;;;;5.40;2.83;;;12.80;93.10;;;;;;5054697;28;21018;-71
2022/09/25 06:22:01;;;;;;;5.90;2.60;;;12.70;93.10;;;;;;5063553;28;20435;-71
2022/09/25 06:24:28;;;;;;;6.82;2.30;;;12.80;92.80;;;;;;5063831;28;20908;-71
2022/09/25 06:26:56;;;;;;;8.80;3.05;;;12.80;92.50;;;;;;5054867;28;20782;-71
2022/09/25 06:29:23;;;;;;;4.35;2.38;;;12.70;92.40;;;;;;5067400;28;20416;-71
2022/09/25 06:31:51;;;;;;;8.43;3.13;;;12.70;92.20;;;;;;5065157;28;20411;-71
2022/09/25 06:34:18;;;;;;;5.85;2.60;;;12.70;92.20;;;;;;5060069;28;20413;-71
2022/09/25 06:36:45;;;;;;;7.75;2.75;;;12.70;92.50;;;;;;5066683;28;20423;-67
2022/09/25 06:39:12;;;;;;;5.53;2.20;;;12.60;92.50;;;;;;5066009;28;20444;-67
2022/09/25 06:41:40;;;;;;;5.57;2.60;;;12.70;92.40;;;;;;5069880;28;20423;-64
2022/09/25 06:44:08;;;;;;;8.30;2.85;;;12.60;92.10;;;;;;5054254;28;20443;-66
2022/09/25 06:46:35;;;;;;;6.53;3.20;;;12.60;92.10;;;;;;5059607;28;20431;-67
2022/09/25 06:49:02;;;;;;;5.63;2.80;;;12.60;92.10;;;;;;5063455;28;20578;-67
2022/09/25 06:51:34;;;;;;;6.15;3.35;;;12.60;92.20;;;;;;5063555;28;20430;-65
2022/09/25 06:54:01;;;;;;;6.75;3.17;;;12.60;92.00;;;;;;5062557;28;20439;-67
2022/09/25 06:56:28;;;;;;;6.50;3.30;;;12.60;91.90;;;;;;5061901;28;20639;-67
2022/09/25 06:58:55;;;;;;;6.57;3.13;;;12.70;91.90;;;;;;5059255;28;20432;-66
2022/09/25 07:01:23;;;;;;;6.45;3.50;;;12.70;91.80;;;;;;5058625;28;20437;-67
2022/09/25 07:03:49;;;;;;;5.82;3.40;;;12.70;92.00;;;;;;5071678;28;20775;-66
2022/09/25 07:06:18;;;;;;;7.17;3.60;;;12.70;92.00;;;;;;5065306;28;20423;-67
2022/09/25 07:08:46;;;;;;;7.70;4.00;;;12.60;92.00;;;;;;5064044;28;20782;-66
2022/09/25 07:11:14;;;;;;;8.25;3.90;;;12.70;91.90;;;;;;5067431;28;20438;-65
2022/09/25 07:13:41;;;;;;;8.50;4.20;;;12.70;91.80;;;;;;5053683;28;20886;-65
2022/09/25 07:16:12;;;;;;;8.05;3.45;;;12.80;91.70;;;;;;5068344;28;20412;-67
2022/09/25 07:18:40;;;;;;;7.45;4.30;;;12.70;91.60;;;;;;5064445;28;20427;-66
2022/09/25 07:21:10;;;;;;;5.35;3.40;;;12.70;91.70;;;;;;5065959;28;20905;-67
2022/09/25 07:23:37;;;;;;;6.18;3.30;;;12.70;91.80;;;;;;5060454;28;20436;-67
2022/09/25 07:26:06;;;;;;;7.10;3.90;;;12.80;91.60;;;;;;5057500;28;20427;-66
2022/09/25 07:28:33;;;;;;;4.82;3.20;;;12.80;91.70;;;;;;5062140;28;21004;-66
2022/09/25 07:30:59;;;;;;;7.18;3.40;;;13.00;92.20;;;;;;5067249;28;20419;-67
2022/09/25 07:33:26;;;;;;;6.53;3.75;;;13.10;91.40;;;;;;5064857;28;20450;-67
2022/09/25 07:35:54;;;;;;;6.95;3.70;;;13.20;91.00;;;;;;5066336;28;20428;-71
2022/09/25 07:38:21;;;;;;;7.90;3.70;;;13.30;90.90;;;;;;5059639;28;20431;-71
2022/09/25 07:40:48;;;;;;;8.00;3.45;;;13.30;91.00;;;;;;5071247;28;20511;-71
2022/09/25 07:43:15;;;;;;;9.50;3.58;;;13.30;91.00;;;;;;5065957;28;20435;-70
2022/09/25 07:45:51;;;;;;;5.88;3.20;;;13.30;90.70;;;;;;5066638;28;20430;-71
2022/09/25 07:48:17;;;;;;;5.78;3.40;;;13.30;90.70;;;;;;5066620;28;20425;-71
2022/09/25 07:50:44;;;;;;;7.50;3.55;;;13.40;90.70;;;;;;5073360;28;20415;-71
2022/09/25 07:53:13;;;;;;;5.82;3.22;;;13.40;90.50;;;;;;5062986;28;20924;-71
2022/09/25 07:55:40;;;;;;;6.60;3.40;;;13.40;90.20;;;;;;5071649;28;20424;-70
2022/09/25 07:58:06;;;;;;;6.93;3.60;;;13.50;90.10;;;;;;5049636;28;21753;-71
2022/09/25 08:00:33;;;;;;;6.75;3.17;;;13.50;90.50;;;;;;5063271;28;20575;-71
2022/09/25 08:03:01;;;;;;;6.35;3.05;;;13.70;90.20;;;;;;5069219;28;20434;-71
2022/09/25 08:05:27;;;;;;;6.93;3.25;;;13.80;89.70;;;;;;5080933;28;20433;-71
2022/09/25 08:07:55;;;;;;;4.80;2.90;;;14.00;89.20;;;;;;5074694;28;20464;-71
2022/09/25 08:10:23;;;;;;;6.63;2.90;;;14.30;87.40;;;;;;5067554;28;20487;-71
2022/09/25 08:12:50;;;;;;;9.15;4.25;;;14.60;85.10;;;;;;5073418;28;20420;-72
2022/09/25 08:15:17;;;;;;;7.10;2.80;;;14.80;84.30;;;;;;5071823;28;20435;-71
2022/09/25 08:17:44;;;;;;;5.53;2.85;;;14.80;83.60;;;;;;5061189;28;20432;-72
2022/09/25 08:20:11;;;;;;;7.18;2.40;;;14.90;83.20;;;;;;5079874;28;21063;-71
2022/09/25 08:22:38;;;;;;;6.32;3.10;;;15.00;82.90;;;;;;5050165;28;20425;-70
2022/09/25 08:25:05;;;;;;;4.95;2.33;;;15.10;82.50;;;;;;5060579;28;20427;-71
2022/09/25 08:27:39;;;;;;;5.95;2.65;;;15.10;81.50;;;;;;5056092;28;20479;-71
2022/09/25 08:30:08;;;;;;;7.50;3.00;;;15.20;79.20;;;;;;5074374;28;20457;-71
2022/09/25 08:32:35;;;;;;;6.90;3.85;;;15.30;78.90;;;;;;5068571;28;20426;-71
2022/09/25 08:35:02;;;;;;;6.22;2.88;;;15.30;78.70;;;;;;5066074;28;20929;-71
2022/09/25 08:37:30;;;;;;;6.95;2.40;;;15.40;77.30;;;;;;5066495;28;20483;-72
2022/09/25 08:39:57;;;;;;;5.28;2.00;;;15.40;77.20;;;;;;5059711;28;20455;-69
2022/09/25 08:42:29;;;;;;;6.10;2.50;;;15.50;77.60;;;;;;5070044;28;20966;-69
2022/09/25 08:50:28;;;;;;;5.28;2.00;;;15.60;76.90;;;;;;5066223;28;20392;-69
2022/09/25 08:53:04;;;;;;;6.05;2.25;;;15.90;76.20;;;;;;5070185;28;20428;-70
2022/09/25 08:58:20;;;;;;;5.88;2.03;;;16.90;72.60;;;;;;5057356;28;20422;-71
2022/09/25 09:00:49;;;;;;;5.65;1.95;;;17.50;69.70;;;;;;5054629;28;20906;-69
2022/09/25 09:03:17;;;;;;;5.50;1.80;;;18.10;67.80;;;;;;5066625;28;20677;-69
2022/09/25 09:05:45;;;;;;;3.85;1.60;;;18.50;65.00;;;;;;5065324;28;20453;-71
2022/09/25 09:08:17;;;;;;;5.43;1.57;;;19.00;63.00;;;;;;5063369;28;20434;-72
2022/09/25 09:10:48;;;;;;;5.72;1.90;;;19.40;60.70;;;;;;5065074;28;20441;-71
2022/09/25 09:13:22;;;;;;;4.40;1.50;;;19.70;59.20;;;;;;5056479;28;20415;-72
2022/09/25 09:15:56;;;;;;;4.25;1.60;;;20.00;58.70;;;;;;5057374;28;20789;-71
2022/09/25 09:18:26;;;;;;;4.40;1.40;;;20.30;57.10;;;;;;5058588;28;20461;-71
2022/09/25 09:20:55;;;;;;;4.40;1.80;;;20.60;54.30;;;;;;5066180;23;20427;-67
2022/09/25 09:23:23;;;;;;;3.17;1.10;;;20.90;53.10;;;;;;5045434;28;20452;-65
2022/09/25 09:26:00;;;;;;;3.60;1.40;;;21.00;52.10;;;;;;5043909;28;20605;-66
2022/09/25 09:28:56;;;;;;;4.47;1.60;;;21.20;52.70;;;;;;5045984;28;20482;-65
2022/09/25 09:31:30;;;;;;;4.30;1.40;;;21.00;51.50;;;;;;5022280;28;20438;-65
2022/09/25 09:34:08;;;;;;;4.65;1.50;;;20.50;53.10;;;;;;5025236;28;20504;-65
2022/09/25 09:36:44;;;;;;;4.20;1.70;;;19.80;54.90;;;;;;5026855;28;20960;-66
2022/09/25 09:39:19;;;;;;;3.58;1.30;;;19.20;57.00;;;;;;5026211;28;20426;-66
2022/09/25 09:41:57;;;;;;;5.30;1.60;;;18.80;58.40;;;;;;5024330;28;20426;-66
2022/09/25 09:44:56;;;;;;;3.83;1.80;;;18.60;59.60;;;;;;5027042;28;20427;-67
2022/09/25 09:47:38;;;;;;;5.70;1.80;;;18.80;59.90;;;;;;5024710;28;20851;-65
2022/09/25 09:50:20;;;;;;;4.55;1.70;;;18.90;58.60;;;;;;5026117;28;20407;-66
2022/09/25 09:52:51;;;;;;;5.68;1.33;;;18.80;58.40;;;;;;5027716;28;20419;-66
2022/09/25 09:55:24;;;;;;;4.53;1.70;;;19.00;57.60;;;;;;5027631;28;20442;-65
2022/09/25 09:57:55;;;;;;;3.67;1.38;;;19.40;55.20;;;;;;5023986;28;22489;-66
2022/09/25 10:00:23;;;;;;;3.50;1.50;;;19.60;54.40;;;;;;5025540;28;20454;-66
2022/09/25 10:02:58;;;;;;;5.70;1.50;;;19.80;53.60;;;;;;5024410;28;20463;-66
2022/09/25 10:05:27;;;;;;;3.95;3.40;;;20.30;51.30;;;;;;5031521;28;20418;-65
2022/09/25 10:07:54;;;;;;;5.13;1.80;;;20.60;51.50;;;;;;5030224;28;20448;-66
2022/09/25 10:10:34;;;;;;;3.38;1.33;;;20.90;50.20;;;;;;5031976;28;20750;-65
2022/09/25 10:13:05;;;;;;;4.55;1.40;;;21.00;49.80;;;;;;5030453;28;20450;-66
2022/09/25 10:15:37;;;;;;;4.28;1.50;;;21.10;48.90;;;;;;5030404;28;20438;-66
2022/09/25 10:18:06;;;;;;;2.72;1.20;;;20.80;49.20;;;;;;5029987;28;20422;-64
2022/09/25 10:20:39;;;;;;;3.70;1.40;;;20.40;49.60;;;;;;5026451;28;20442;-66
2022/09/25 10:23:14;;;;;;;4.63;1.38;;;19.90;51.10;;;;;;5030804;28;20434;-66
2022/09/25 10:25:40;;;;;;;2.90;1.20;;;19.70;52.50;;;;;;5029531;28;20431;-65
2022/09/25 10:28:23;;;;;;;3.95;1.58;;;19.70;51.90;;;;;;5027981;28;20454;-65
2022/09/25 10:30:51;;;;;;;3.15;1.10;;;19.70;52.60;;;;;;5026753;28;20442;-66
2022/09/25 10:33:22;;;;;;;3.92;1.38;;;19.80;52.10;;;;;;5028850;28;20450;-65
2022/09/25 10:35:53;;;;;;;3.78;1.40;;;20.00;50.00;;;;;;5028275;28;20801;-65
2022/09/25 10:38:37;;;;;;;2.08;0.90;;;20.10;49.10;;;;;;5028416;28;20544;-64
2022/09/25 10:41:08;;;;;;;3.72;1.27;;;20.10;49.20;;;;;;5029828;28;20436;-64
2022/09/25 10:43:35;;;;;;;3.30;1.00;;;20.20;48.40;;;;;;5030370;28;20419;-65
2022/09/25 10:46:09;;;;;;;5.05;1.50;;;20.40;47.90;;;;;;5030530;28;20426;-65
2022/09/25 10:51:23;;;;;;;3.67;1.30;;;20.00;48.30;;;;;;5019047;28;20514;-66
2022/09/25 10:53:51;;;;;;;5.15;1.33;;;19.60;48.70;;;;;;5031926;28;20434;-65
2022/09/25 10:56:21;;;;;;;3.63;0.90;;;19.40;47.60;;;;;;5029902;28;20431;-64
2022/09/25 10:58:53;;;;;;;2.85;1.08;;;19.30;46.60;;;;;;5030749;28;20423;-66
2022/09/25 11:01:21;;;;;;;1.90;0.98;;;19.60;46.80;;;;;;5029731;28;20449;-65
2022/09/25 11:03:52;;;;;;;2.45;1.10;;;20.00;46.00;;;;;;5029249;28;20516;-65
2022/09/25 11:06:25;;;;;;;4.00;1.30;;;20.20;45.90;;;;;;5026499;28;20438;-65
2022/09/25 11:09:06;;;;;;;3.70;1.15;;;20.30;46.20;;;;;;5024360;28;20916;-65
2022/09/25 11:11:33;;;;;;;2.55;1.23;;;20.40;44.10;;;;;;5026664;28;20441;-65
2022/09/25 11:14:03;;;;;;;4.20;1.35;;;20.40;45.00;;;;;;5027067;28;20453;-65
2022/09/25 11:16:46;;;;;;;2.83;1.00;;;20.80;43.60;;;;;;5024300;28;20798;-65
2022/09/25 11:19:17;;;;;;;3.92;1.05;;;20.90;43.60;;;;;;5021715;28;20434;-65
2022/09/25 11:21:54;;;;;;;2.90;0.80;;;20.70;43.50;;;;;;5029311;28;20461;-65
2022/09/25 11:24:25;;;;;;;2.40;0.90;;;20.50;44.90;;;;;;5021918;28;20455;-65
2022/09/25 11:26:58;;;;;;;2.25;0.98;;;20.40;45.40;;;;;;5026638;28;20438;-65
2022/09/25 11:29:35;;;;;;;2.85;1.10;;;20.30;45.60;;;;;;5028031;28;20455;-65
2022/09/25 11:32:09;;;;;;;3.40;1.25;;;20.20;46.00;;;;;;5027346;28;20930;-65
2022/09/25 11:34:57;;;;;;;1.50;0.80;;;20.10;45.40;;;;;;5029463;28;20480;-65
2022/09/25 11:37:31;;;;;;;3.78;1.10;;;20.30;45.10;;;;;;5028245;28;20544;-65
2022/09/25 11:43:15;;;;;;;2.70;0.90;;;20.80;45.30;;;;;;4949508;28;20470;-64
2022/09/25 11:45:47;;;;;;;3.03;0.85;;;21.10;41.90;;;;;;4948986;28;20825;-64
2022/09/25 11:48:22;;;;;;;3.23;0.93;;;21.10;41.60;;;;;;4985489;28;20435;-64
2022/09/25 11:50:57;;;;;;;2.50;0.90;;;20.80;42.20;;;;;;5028527;28;20427;-65
2022/09/25 11:53:34;;;;;;;2.38;1.05;;;20.60;43.00;;;;;;5027951;28;20430;-64
2022/09/25 11:56:16;;;;;;;3.50;2.10;;;20.40;43.40;;;;;;5028736;28;20419;-65
2022/09/25 11:58:56;;;;;;;3.40;1.50;;;20.30;44.00;;;;;;5029390;28;20476;-65
2022/09/25 12:01:31;;;;;;;2.50;1.30;;;20.20;44.30;;;;;;5029310;28;20422;-65
2022/09/25 12:04:20;;;;;;;2.57;0.90;;;20.10;43.30;;;;;;5026054;28;20435;-63
2022/09/25 12:07:07;;;;;;;1.63;0.80;;;19.90;42.60;;;;;;5029419;28;20415;-65
2022/09/25 12:09:56;;;;;;;3.42;1.00;;;19.70;42.30;;;;;;5017931;28;20435;-65
2022/09/25 12:12:32;;;;;;;1.90;1.00;;;19.60;44.30;;;;;;5026614;28;20441;-66
2022/09/25 12:15:07;;;;;;;3.00;1.70;;;19.80;44.70;;;;;;5027959;28;20812;-66
2022/09/25 12:17:42;;;;;;;2.92;1.80;;;19.90;44.30;;;;;;5028749;28;20488;-65
2022/09/25 12:20:19;;;;;;;3.47;1.63;;;20.00;45.00;;;;;;5029349;28;20434;-66
2022/09/25 12:22:59;;;;;;;2.13;0.98;;;20.00;44.70;;;;;;5028291;28;20492;-65
2022/09/25 12:25:42;;;;;;;1.95;1.00;;;19.90;44.40;;;;;;5025711;28;20436;-65
2022/09/25 12:28:19;;;;;;;1.90;1.00;;;19.70;45.50;;;;;;5029123;28;20510;-66
2022/09/25 12:30:55;;;;;;;2.35;1.00;;;19.50;44.70;;;;;;5027730;28;20438;-65
2022/09/25 12:33:31;;;;;;;2.60;0.80;;;19.60;43.90;;;;;;5021154;28;20431;-65
2022/09/25 12:36:02;;;;;;;2.00;0.90;;;20.10;42.30;;;;;;5027564;28;20431;-65
2022/09/25 12:38:40;;;;;;;2.80;1.00;;;20.80;41.70;;;;;;5028775;28;20411;-64
2022/09/25 12:41:15;;;;;;;2.70;1.00;;;21.70;40.60;;;;;;5028347;28;21027;-65
2022/09/25 12:43:46;;;;;;;2.53;1.10;;;22.60;39.10;;;;;;5025966;28;20438;-65
2022/09/25 12:46:19;;;;;;;3.40;0.98;;;22.90;38.40;;;;;;5020791;28;20914;-66
2022/09/25 12:48:51;;;;;;;3.75;1.05;;;22.40;38.50;;;;;;5025179;28;20464;-64
2022/09/25 12:51:24;;;;;;;2.70;0.80;;;22.00;39.70;;;;;;5017014;28;20795;-64
2022/09/25 12:53:57;;;;;;;4.10;1.10;;;22.10;39.40;;;;;;5025467;28;20434;-63
2022/09/25 12:56:29;;;;;;;3.88;1.30;;;22.10;40.20;;;;;;5022613;28;20431;-65
2022/09/25 12:59:02;;;;;;;2.70;1.30;;;21.80;39.80;;;;;;5028029;28;20419;-66
2022/09/25 13:01:38;;;;;;;3.30;1.20;;;21.30;40.20;;;;;;5023462;28;20474;-66
2022/09/25 13:04:18;;;;;;;3.42;1.50;;;20.80;41.30;;;;;;5027655;28;20426;-65
2022/09/25 13:06:51;;;;;;;4.15;1.77;;;20.40;43.10;;;;;;5026739;28;20483;-65
2022/09/25 13:09:26;;;;;;;3.08;1.60;;;20.10;43.70;;;;;;5019418;28;20434;-65
2022/09/25 13:11:58;;;;;;;3.90;2.28;;;20.20;43.70;;;;;;5025224;28;20435;-64
2022/09/25 13:14:33;;;;;;;2.83;2.10;;;20.60;41.40;;;;;;5019536;28;20433;-64
2022/09/25 13:17:01;;;;;;;1.90;1.50;;;21.00;38.30;;;;;;5025556;28;20430;-66
2022/09/25 13:19:28;;;;;;;3.25;1.50;;;21.30;38.20;;;;;;5027997;28;20415;-66
2022/09/25 13:22:05;;;;;;;2.58;1.60;;;21.50;38.80;;;;;;5027051;28;20434;-65